sensor_id;sensor_type;location;lat;lon;timestamp;P1;durP1;ratioP1;P2;durP2;ratioP2
10491;SDS011;5293;51.464;-2.566;2023-06-14T00:02:02;7.60;;;5.20;;
10491;SDS011;5293;51.464;-2.566;2023-06-14T00:04:28;6.80;;;5.07;;
10491;SDS011;5293;51.464;-2.566;2023-06-14T00:06:55;7.33;;;4.40;;
10491;SDS011;5293;51.464;-2.566;2023-06-14T00:09:21;9.30;;;4.73;;
10491;SDS011;5293;51.464;-2.566;2023-06-14T00:11:47;5.17;;;4.57;;
10491;SDS011;5293;51.464;-2.566;2023-06-14T00:14:13;5.20;;;4.70;;
10491;SDS011;5293;51.464;-2.566;2023-06-14T00:16:39;10.83;;;4.97;;
10491;SDS011;5293;51.464;-2.566;2023-06-14T00:19:07;7.10;;;4.93;;
10491;SDS011;5293;51.464;-2.566;2023-06-14T00:21:35;10.37;;;5.83;;
10491;SDS011;5293;51.464;-2.566;2023-06-14T00:24:01;9.87;;;5.33;;
10491;SDS011;5293;51.464;-2.566;2023-06-14T00:26:27;7.47;;;5.17;;
10491;SDS011;5293;51.464;-2.566;2023-06-14T00:28:53;10.00;;;4.77;;
10491;SDS011;5293;51.464;-2.566;2023-06-14T00:31:19;5.70;;;5.07;;
10491;SDS011;5293;51.464;-2.566;2023-06-14T00:33:45;9.23;;;5.53;;
10491;SDS011;5293;51.464;-2.566;2023-06-14T00:36:11;6.53;;;5.03;;
10491;SDS011;5293;51.464;-2.566;2023-06-14T00:38:37;7.50;;;5.17;;
10491;SDS011;5293;51.464;-2.566;2023-06-14T00:41:03;5.10;;;4.60;;
10491;SDS011;5293;51.464;-2.566;2023-06-14T00:43:29;5.80;;;4.73;;
10491;SDS011;5293;51.464;-2.566;2023-06-14T00:45:55;6.90;;;4.83;;
10491;SDS011;5293;51.464;-2.566;2023-06-14T00:48:20;5.33;;;4.37;;
10491;SDS011;5293;51.464;-2.566;2023-06-14T00:50:47;5.97;;;4.33;;
10491;SDS011;5293;51.464;-2.566;2023-06-14T00:53:14;4.53;;;4.10;;
10491;SDS011;5293;51.464;-2.566;2023-06-14T00:55:42;7.77;;;4.87;;
10491;SDS011;5293;51.464;-2.566;2023-06-14T00:58:08;5.10;;;4.33;;
10491;SDS011;5293;51.464;-2.566;2023-06-14T01:00:34;5.53;;;4.63;;
10491;SDS011;5293;51.464;-2.566;2023-06-14T01:03:00;6.33;;;4.47;;
10491;SDS011;5293;51.464;-2.566;2023-06-14T01:05:27;4.70;;;4.30;;
10491;SDS011;5293;51.464;-2.566;2023-06-14T01:11:07;6.73;;;4.80;;
10491;SDS011;5293;51.464;-2.566;2023-06-14T01:13:43;8.27;;;4.40;;
10491;SDS011;5293;51.464;-2.566;2023-06-14T01:16:11;5.90;;;4.60;;
10491;SDS011;5293;51.464;-2.566;2023-06-14T01:18:37;5.63;;;4.37;;
10491;SDS011;5293;51.464;-2.566;2023-06-14T01:21:03;6.30;;;3.77;;
10491;SDS011;5293;51.464;-2.566;2023-06-14T01:23:31;5.13;;;4.50;;
10491;SDS011;5293;51.464;-2.566;2023-06-14T01:26:00;5.23;;;4.10;;
10491;SDS011;5293;51.464;-2.566;2023-06-14T01:28:28;5.30;;;4.03;;
10491;SDS011;5293;51.464;-2.566;2023-06-14T01:30:57;6.27;;;3.90;;
10491;SDS011;5293;51.464;-2.566;2023-06-14T01:33:26;6.73;;;4.00;;
10491;SDS011;5293;51.464;-2.566;2023-06-14T01:35:53;6.83;;;4.23;;
10491;SDS011;5293;51.464;-2.566;2023-06-14T01:38:20;7.57;;;4.20;;
10491;SDS011;5293;51.464;-2.566;2023-06-14T01:40:48;6.00;;;3.90;;
10491;SDS011;5293;51.464;-2.566;2023-06-14T01:43:16;5.50;;;4.00;;
10491;SDS011;5293;51.464;-2.566;2023-06-14T01:45:44;6.70;;;4.00;;
10491;SDS011;5293;51.464;-2.566;2023-06-14T01:48:12;5.43;;;4.17;;
10491;SDS011;5293;51.464;-2.566;2023-06-14T01:50:38;4.97;;;3.60;;
10491;SDS011;5293;51.464;-2.566;2023-06-14T01:53:07;3.77;;;3.40;;
10491;SDS011;5293;51.464;-2.566;2023-06-14T01:55:34;6.27;;;3.80;;
10491;SDS011;5293;51.464;-2.566;2023-06-14T01:58:02;9.07;;;4.20;;
10491;SDS011;5293;51.464;-2.566;2023-06-14T02:00:28;5.97;;;3.73;;
10491;SDS011;5293;51.464;-2.566;2023-06-14T02:02:54;6.37;;;3.97;;
10491;SDS011;5293;51.464;-2.566;2023-06-14T02:05:20;8.47;;;4.23;;
10491;SDS011;5293;51.464;-2.566;2023-06-14T02:07:46;6.40;;;3.63;;
10491;SDS011;5293;51.464;-2.566;2023-06-14T02:10:13;3.77;;;3.20;;
10491;SDS011;5293;51.464;-2.566;2023-06-14T02:12:40;5.33;;;4.27;;
10491;SDS011;5293;51.464;-2.566;2023-06-14T02:15:06;4.70;;;3.93;;
10491;SDS011;5293;51.464;-2.566;2023-06-14T02:17:32;5.90;;;4.07;;
10491;SDS011;5293;51.464;-2.566;2023-06-14T02:19:58;8.07;;;4.00;;
10491;SDS011;5293;51.464;-2.566;2023-06-14T02:22:23;7.93;;;4.00;;
10491;SDS011;5293;51.464;-2.566;2023-06-14T02:24:49;6.57;;;4.10;;
10491;SDS011;5293;51.464;-2.566;2023-06-14T02:27:15;7.50;;;3.40;;
10491;SDS011;5293;51.464;-2.566;2023-06-14T02:29:40;5.63;;;3.80;;
10491;SDS011;5293;51.464;-2.566;2023-06-14T02:32:06;6.03;;;3.83;;
10491;SDS011;5293;51.464;-2.566;2023-06-14T02:34:35;7.23;;;3.70;;
10491;SDS011;5293;51.464;-2.566;2023-06-14T02:37:01;4.23;;;3.53;;
10491;SDS011;5293;51.464;-2.566;2023-06-14T02:39:30;5.13;;;3.80;;
10491;SDS011;5293;51.464;-2.566;2023-06-14T02:41:55;5.70;;;3.70;;
10491;SDS011;5293;51.464;-2.566;2023-06-14T02:44:25;5.43;;;3.40;;
10491;SDS011;5293;51.464;-2.566;2023-06-14T02:46:55;4.60;;;3.40;;
10491;SDS011;5293;51.464;-2.566;2023-06-14T02:49:21;3.63;;;3.20;;
10491;SDS011;5293;51.464;-2.566;2023-06-14T02:51:47;5.47;;;3.43;;
10491;SDS011;5293;51.464;-2.566;2023-06-14T02:54:13;3.80;;;3.40;;
10491;SDS011;5293;51.464;-2.566;2023-06-14T02:56:39;6.00;;;3.80;;
10491;SDS011;5293;51.464;-2.566;2023-06-14T02:59:05;5.03;;;3.77;;
10491;SDS011;5293;51.464;-2.566;2023-06-14T03:01:32;5.80;;;4.20;;
10491;SDS011;5293;51.464;-2.566;2023-06-14T03:04:06;7.67;;;3.60;;
10491;SDS011;5293;51.464;-2.566;2023-06-14T03:06:34;3.50;;;3.00;;
10491;SDS011;5293;51.464;-2.566;2023-06-14T03:09:01;3.70;;;3.40;;
10491;SDS011;5293;51.464;-2.566;2023-06-14T03:11:32;4.07;;;3.50;;
10491;SDS011;5293;51.464;-2.566;2023-06-14T03:13:58;6.27;;;4.27;;
10491;SDS011;5293;51.464;-2.566;2023-06-14T03:16:24;6.23;;;4.63;;
10491;SDS011;5293;51.464;-2.566;2023-06-14T03:18:51;10.13;;;5.47;;
10491;SDS011;5293;51.464;-2.566;2023-06-14T03:21:17;5.30;;;4.57;;
10491;SDS011;5293;51.464;-2.566;2023-06-14T03:23:44;7.73;;;5.33;;
10491;SDS011;5293;51.464;-2.566;2023-06-14T03:26:10;7.67;;;4.90;;
10491;SDS011;5293;51.464;-2.566;2023-06-14T03:28:39;6.53;;;5.10;;
10491;SDS011;5293;51.464;-2.566;2023-06-14T03:31:05;6.43;;;5.27;;
10491;SDS011;5293;51.464;-2.566;2023-06-14T03:33:31;7.17;;;5.07;;
10491;SDS011;5293;51.464;-2.566;2023-06-14T03:35:57;7.67;;;5.40;;
10491;SDS011;5293;51.464;-2.566;2023-06-14T03:38:23;12.77;;;5.90;;
10491;SDS011;5293;51.464;-2.566;2023-06-14T03:40:48;8.10;;;5.93;;
10491;SDS011;5293;51.464;-2.566;2023-06-14T03:43:14;9.60;;;5.23;;
10491;SDS011;5293;51.464;-2.566;2023-06-14T03:45:39;8.43;;;4.97;;
10491;SDS011;5293;51.464;-2.566;2023-06-14T03:48:05;7.03;;;5.37;;
10491;SDS011;5293;51.464;-2.566;2023-06-14T03:50:33;10.87;;;5.50;;
10491;SDS011;5293;51.464;-2.566;2023-06-14T03:52:59;9.17;;;5.00;;
10491;SDS011;5293;51.464;-2.566;2023-06-14T03:55:26;7.77;;;4.67;;
10491;SDS011;5293;51.464;-2.566;2023-06-14T03:57:52;6.80;;;4.90;;
10491;SDS011;5293;51.464;-2.566;2023-06-14T04:00:18;7.73;;;4.17;;
10491;SDS011;5293;51.464;-2.566;2023-06-14T04:02:44;8.30;;;4.60;;
10491;SDS011;5293;51.464;-2.566;2023-06-14T04:05:10;8.17;;;4.73;;
10491;SDS011;5293;51.464;-2.566;2023-06-14T04:07:36;5.17;;;4.03;;
10491;SDS011;5293;51.464;-2.566;2023-06-14T04:10:05;8.07;;;4.30;;
10491;SDS011;5293;51.464;-2.566;2023-06-14T04:12:32;9.00;;;3.60;;
10491;SDS011;5293;51.464;-2.566;2023-06-14T04:14:58;5.73;;;4.10;;
10491;SDS011;5293;51.464;-2.566;2023-06-14T04:17:25;8.67;;;3.90;;
10491;SDS011;5293;51.464;-2.566;2023-06-14T04:19:50;5.80;;;3.77;;
10491;SDS011;5293;51.464;-2.566;2023-06-14T04:22:16;7.80;;;3.60;;
10491;SDS011;5293;51.464;-2.566;2023-06-14T04:24:43;5.07;;;3.43;;
10491;SDS011;5293;51.464;-2.566;2023-06-14T04:27:10;6.40;;;3.67;;
10491;SDS011;5293;51.464;-2.566;2023-06-14T04:29:35;5.60;;;3.60;;
10491;SDS011;5293;51.464;-2.566;2023-06-14T04:32:01;6.60;;;3.90;;
10491;SDS011;5293;51.464;-2.566;2023-06-14T04:34:27;5.07;;;3.70;;
10491;SDS011;5293;51.464;-2.566;2023-06-14T04:36:59;5.43;;;3.70;;
10491;SDS011;5293;51.464;-2.566;2023-06-14T04:39:26;4.80;;;3.50;;
10491;SDS011;5293;51.464;-2.566;2023-06-14T04:41:52;6.20;;;3.30;;
10491;SDS011;5293;51.464;-2.566;2023-06-14T04:44:21;7.77;;;3.70;;
10491;SDS011;5293;51.464;-2.566;2023-06-14T04:46:54;5.77;;;3.10;;
10491;SDS011;5293;51.464;-2.566;2023-06-14T04:49:23;5.73;;;3.20;;
10491;SDS011;5293;51.464;-2.566;2023-06-14T04:51:49;4.37;;;3.40;;
10491;SDS011;5293;51.464;-2.566;2023-06-14T04:54:22;5.13;;;3.40;;
10491;SDS011;5293;51.464;-2.566;2023-06-14T04:56:50;6.80;;;3.90;;
10491;SDS011;5293;51.464;-2.566;2023-06-14T04:59:16;7.37;;;3.53;;
10491;SDS011;5293;51.464;-2.566;2023-06-14T05:01:42;5.27;;;3.47;;
10491;SDS011;5293;51.464;-2.566;2023-06-14T05:04:13;4.10;;;2.80;;
10491;SDS011;5293;51.464;-2.566;2023-06-14T05:06:40;7.37;;;3.33;;
10491;SDS011;5293;51.464;-2.566;2023-06-14T05:09:07;4.33;;;3.30;;
10491;SDS011;5293;51.464;-2.566;2023-06-14T05:11:32;7.47;;;3.60;;
10491;SDS011;5293;51.464;-2.566;2023-06-14T05:13:58;6.83;;;3.50;;
10491;SDS011;5293;51.464;-2.566;2023-06-14T05:16:24;7.90;;;3.40;;
10491;SDS011;5293;51.464;-2.566;2023-06-14T05:18:52;5.53;;;3.33;;
10491;SDS011;5293;51.464;-2.566;2023-06-14T05:21:18;6.43;;;3.90;;
10491;SDS011;5293;51.464;-2.566;2023-06-14T05:23:44;7.43;;;3.37;;
10491;SDS011;5293;51.464;-2.566;2023-06-14T05:26:10;7.73;;;3.50;;
10491;SDS011;5293;51.464;-2.566;2023-06-14T05:28:36;8.70;;;3.77;;
10491;SDS011;5293;51.464;-2.566;2023-06-14T05:31:02;9.97;;;3.27;;
10491;SDS011;5293;51.464;-2.566;2023-06-14T05:33:27;4.63;;;3.00;;
10491;SDS011;5293;51.464;-2.566;2023-06-14T05:35:54;9.00;;;3.50;;
10491;SDS011;5293;51.464;-2.566;2023-06-14T05:38:20;7.17;;;3.60;;
10491;SDS011;5293;51.464;-2.566;2023-06-14T05:40:46;5.93;;;3.23;;
10491;SDS011;5293;51.464;-2.566;2023-06-14T05:43:11;6.23;;;3.60;;
10491;SDS011;5293;51.464;-2.566;2023-06-14T05:45:37;7.07;;;3.50;;
10491;SDS011;5293;51.464;-2.566;2023-06-14T05:48:03;8.60;;;3.80;;
10491;SDS011;5293;51.464;-2.566;2023-06-14T05:50:29;3.93;;;3.20;;
10491;SDS011;5293;51.464;-2.566;2023-06-14T05:52:55;4.33;;;3.50;;
10491;SDS011;5293;51.464;-2.566;2023-06-14T05:55:21;3.47;;;3.13;;
10491;SDS011;5293;51.464;-2.566;2023-06-14T05:57:46;4.47;;;3.30;;
10491;SDS011;5293;51.464;-2.566;2023-06-14T06:00:13;5.37;;;3.70;;
10491;SDS011;5293;51.464;-2.566;2023-06-14T06:02:43;5.90;;;3.40;;
10491;SDS011;5293;51.464;-2.566;2023-06-14T06:05:10;7.13;;;3.43;;
10491;SDS011;5293;51.464;-2.566;2023-06-14T06:07:36;3.93;;;3.17;;
10491;SDS011;5293;51.464;-2.566;2023-06-14T06:10:02;7.33;;;3.17;;
10491;SDS011;5293;51.464;-2.566;2023-06-14T06:12:30;6.00;;;3.67;;
10491;SDS011;5293;51.464;-2.566;2023-06-14T06:14:55;7.37;;;3.40;;
10491;SDS011;5293;51.464;-2.566;2023-06-14T06:17:21;5.80;;;3.40;;
10491;SDS011;5293;51.464;-2.566;2023-06-14T06:19:47;6.40;;;3.23;;
10491;SDS011;5293;51.464;-2.566;2023-06-14T06:22:12;4.53;;;3.10;;
10491;SDS011;5293;51.464;-2.566;2023-06-14T06:24:38;9.77;;;4.10;;
10491;SDS011;5293;51.464;-2.566;2023-06-14T06:27:04;7.33;;;3.17;;
10491;SDS011;5293;51.464;-2.566;2023-06-14T06:29:30;5.00;;;3.40;;
10491;SDS011;5293;51.464;-2.566;2023-06-14T06:31:55;9.77;;;3.87;;
10491;SDS011;5293;51.464;-2.566;2023-06-14T06:34:21;9.67;;;3.87;;
10491;SDS011;5293;51.464;-2.566;2023-06-14T06:36:47;5.60;;;3.23;;
10491;SDS011;5293;51.464;-2.566;2023-06-14T06:39:13;8.93;;;3.77;;
10491;SDS011;5293;51.464;-2.566;2023-06-14T06:41:40;13.03;;;4.07;;
10491;SDS011;5293;51.464;-2.566;2023-06-14T06:44:06;12.33;;;3.53;;
10491;SDS011;5293;51.464;-2.566;2023-06-14T06:46:32;8.63;;;3.30;;
10491;SDS011;5293;51.464;-2.566;2023-06-14T06:48:59;14.80;;;3.87;;
10491;SDS011;5293;51.464;-2.566;2023-06-14T06:51:26;5.77;;;3.17;;
10491;SDS011;5293;51.464;-2.566;2023-06-14T06:53:52;13.80;;;3.60;;
10491;SDS011;5293;51.464;-2.566;2023-06-14T06:56:19;9.73;;;3.13;;
10491;SDS011;5293;51.464;-2.566;2023-06-14T06:58:45;3.73;;;3.37;;
10491;SDS011;5293;51.464;-2.566;2023-06-14T07:01:11;5.80;;;2.77;;
10491;SDS011;5293;51.464;-2.566;2023-06-14T07:03:38;6.47;;;2.93;;
10491;SDS011;5293;51.464;-2.566;2023-06-14T07:06:03;8.13;;;3.53;;
10491;SDS011;5293;51.464;-2.566;2023-06-14T07:08:29;5.73;;;3.30;;
10491;SDS011;5293;51.464;-2.566;2023-06-14T07:10:55;6.40;;;3.60;;
10491;SDS011;5293;51.464;-2.566;2023-06-14T07:13:21;5.60;;;3.13;;
10491;SDS011;5293;51.464;-2.566;2023-06-14T07:15:46;5.00;;;3.53;;
10491;SDS011;5293;51.464;-2.566;2023-06-14T07:18:12;7.03;;;3.23;;
10491;SDS011;5293;51.464;-2.566;2023-06-14T07:20:38;4.83;;;3.33;;
10491;SDS011;5293;51.464;-2.566;2023-06-14T07:23:04;7.40;;;3.50;;
10491;SDS011;5293;51.464;-2.566;2023-06-14T07:25:30;9.83;;;3.77;;
10491;SDS011;5293;51.464;-2.566;2023-06-14T07:27:56;8.83;;;3.60;;
10491;SDS011;5293;51.464;-2.566;2023-06-14T07:30:22;3.80;;;3.20;;
10491;SDS011;5293;51.464;-2.566;2023-06-14T07:32:51;10.87;;;3.83;;
10491;SDS011;5293;51.464;-2.566;2023-06-14T07:35:17;8.27;;;3.13;;
10491;SDS011;5293;51.464;-2.566;2023-06-14T07:37:43;4.90;;;3.00;;
10491;SDS011;5293;51.464;-2.566;2023-06-14T07:40:10;7.17;;;3.40;;
10491;SDS011;5293;51.464;-2.566;2023-06-14T07:42:36;5.40;;;3.10;;
10491;SDS011;5293;51.464;-2.566;2023-06-14T07:45:02;6.10;;;3.40;;
10491;SDS011;5293;51.464;-2.566;2023-06-14T07:47:29;12.67;;;4.30;;
10491;SDS011;5293;51.464;-2.566;2023-06-14T07:49:55;6.40;;;3.23;;
10491;SDS011;5293;51.464;-2.566;2023-06-14T07:52:20;6.83;;;2.97;;
10491;SDS011;5293;51.464;-2.566;2023-06-14T07:54:46;9.10;;;3.40;;
10491;SDS011;5293;51.464;-2.566;2023-06-14T07:57:12;7.13;;;3.27;;
10491;SDS011;5293;51.464;-2.566;2023-06-14T07:59:38;8.30;;;3.20;;
10491;SDS011;5293;51.464;-2.566;2023-06-14T08:02:04;4.90;;;3.40;;
10491;SDS011;5293;51.464;-2.566;2023-06-14T08:04:30;3.87;;;3.07;;
10491;SDS011;5293;51.464;-2.566;2023-06-14T08:06:56;9.70;;;3.73;;
10491;SDS011;5293;51.464;-2.566;2023-06-14T08:09:22;9.67;;;4.03;;
10491;SDS011;5293;51.464;-2.566;2023-06-14T08:11:49;5.60;;;4.13;;
10491;SDS011;5293;51.464;-2.566;2023-06-14T08:14:15;4.03;;;2.83;;
10491;SDS011;5293;51.464;-2.566;2023-06-14T08:16:40;9.70;;;3.70;;
10491;SDS011;5293;51.464;-2.566;2023-06-14T08:19:07;9.27;;;3.50;;
10491;SDS011;5293;51.464;-2.566;2023-06-14T08:21:33;6.60;;;3.40;;
10491;SDS011;5293;51.464;-2.566;2023-06-14T08:24:01;11.27;;;4.10;;
10491;SDS011;5293;51.464;-2.566;2023-06-14T08:26:27;5.87;;;3.57;;
10491;SDS011;5293;51.464;-2.566;2023-06-14T08:28:54;7.47;;;3.77;;
10491;SDS011;5293;51.464;-2.566;2023-06-14T08:31:20;9.90;;;3.60;;
10491;SDS011;5293;51.464;-2.566;2023-06-14T08:33:46;6.43;;;3.33;;
10491;SDS011;5293;51.464;-2.566;2023-06-14T08:36:11;4.93;;;3.17;;
10491;SDS011;5293;51.464;-2.566;2023-06-14T08:38:38;5.53;;;3.57;;
10491;SDS011;5293;51.464;-2.566;2023-06-14T08:41:05;9.23;;;3.90;;
10491;SDS011;5293;51.464;-2.566;2023-06-14T08:43:33;5.47;;;3.40;;
10491;SDS011;5293;51.464;-2.566;2023-06-14T08:46:00;5.00;;;3.83;;
10491;SDS011;5293;51.464;-2.566;2023-06-14T08:48:28;7.23;;;3.97;;
10491;SDS011;5293;51.464;-2.566;2023-06-14T08:50:57;6.70;;;3.57;;
10491;SDS011;5293;51.464;-2.566;2023-06-14T08:53:31;6.77;;;3.20;;
10491;SDS011;5293;51.464;-2.566;2023-06-14T08:55:59;7.33;;;3.27;;
10491;SDS011;5293;51.464;-2.566;2023-06-14T08:58:33;7.67;;;4.10;;
10491;SDS011;5293;51.464;-2.566;2023-06-14T09:00:59;8.87;;;3.77;;
10491;SDS011;5293;51.464;-2.566;2023-06-14T09:03:26;8.83;;;3.53;;
10491;SDS011;5293;51.464;-2.566;2023-06-14T09:05:55;6.47;;;3.73;;
10491;SDS011;5293;51.464;-2.566;2023-06-14T09:08:26;6.37;;;3.40;;
10491;SDS011;5293;51.464;-2.566;2023-06-14T09:11:02;5.47;;;3.67;;
10491;SDS011;5293;51.464;-2.566;2023-06-14T09:13:27;9.50;;;3.70;;
10491;SDS011;5293;51.464;-2.566;2023-06-14T09:15:53;4.00;;;3.60;;
10491;SDS011;5293;51.464;-2.566;2023-06-14T09:18:19;6.23;;;3.47;;
10491;SDS011;5293;51.464;-2.566;2023-06-14T09:20:46;6.60;;;3.57;;
10491;SDS011;5293;51.464;-2.566;2023-06-14T09:23:14;9.00;;;4.10;;
10491;SDS011;5293;51.464;-2.566;2023-06-14T09:25:46;6.80;;;3.93;;
10491;SDS011;5293;51.464;-2.566;2023-06-14T09:28:12;10.23;;;4.03;;
10491;SDS011;5293;51.464;-2.566;2023-06-14T09:30:38;5.93;;;3.60;;
10491;SDS011;5293;51.464;-2.566;2023-06-14T09:33:04;6.00;;;3.57;;
10491;SDS011;5293;51.464;-2.566;2023-06-14T09:35:32;6.97;;;4.00;;
10491;SDS011;5293;51.464;-2.566;2023-06-14T09:37:58;8.60;;;4.07;;
10491;SDS011;5293;51.464;-2.566;2023-06-14T09:40:24;6.20;;;3.50;;
10491;SDS011;5293;51.464;-2.566;2023-06-14T09:42:50;3.67;;;3.17;;
10491;SDS011;5293;51.464;-2.566;2023-06-14T09:45:17;5.90;;;3.30;;
10491;SDS011;5293;51.464;-2.566;2023-06-14T09:47:48;5.23;;;3.40;;
10491;SDS011;5293;51.464;-2.566;2023-06-14T09:50:14;9.00;;;3.70;;
10491;SDS011;5293;51.464;-2.566;2023-06-14T09:52:40;6.30;;;3.57;;
10491;SDS011;5293;51.464;-2.566;2023-06-14T09:55:11;5.37;;;3.33;;
10491;SDS011;5293;51.464;-2.566;2023-06-14T09:57:38;7.47;;;3.37;;
10491;SDS011;5293;51.464;-2.566;2023-06-14T10:00:07;6.47;;;3.23;;
10491;SDS011;5293;51.464;-2.566;2023-06-14T10:02:37;9.67;;;3.47;;
10491;SDS011;5293;51.464;-2.566;2023-06-14T10:05:07;6.93;;;3.53;;
10491;SDS011;5293;51.464;-2.566;2023-06-14T10:07:40;8.97;;;3.60;;
10491;SDS011;5293;51.464;-2.566;2023-06-14T10:10:08;6.13;;;3.43;;
10491;SDS011;5293;51.464;-2.566;2023-06-14T10:12:35;9.17;;;3.53;;
10491;SDS011;5293;51.464;-2.566;2023-06-14T10:15:01;9.17;;;3.50;;
10491;SDS011;5293;51.464;-2.566;2023-06-14T10:23:07;6.80;;;3.47;;
10491;SDS011;5293;51.464;-2.566;2023-06-14T10:25:37;6.80;;;3.27;;
10491;SDS011;5293;51.464;-2.566;2023-06-14T10:28:05;6.00;;;3.30;;
10491;SDS011;5293;51.464;-2.566;2023-06-14T10:33:40;7.43;;;3.13;;
10491;SDS011;5293;51.464;-2.566;2023-06-14T10:39:09;9.33;;;3.40;;
10491;SDS011;5293;51.464;-2.566;2023-06-14T10:41:37;4.00;;;3.60;;
10491;SDS011;5293;51.464;-2.566;2023-06-14T10:46:39;9.60;;;3.30;;
10491;SDS011;5293;51.464;-2.566;2023-06-14T10:49:05;5.13;;;2.80;;
10491;SDS011;5293;51.464;-2.566;2023-06-14T10:51:53;4.93;;;2.63;;
10491;SDS011;5293;51.464;-2.566;2023-06-14T10:54:21;5.03;;;3.10;;
10491;SDS011;5293;51.464;-2.566;2023-06-14T10:56:47;7.93;;;3.13;;
10491;SDS011;5293;51.464;-2.566;2023-06-14T10:59:18;7.50;;;3.17;;
10491;SDS011;5293;51.464;-2.566;2023-06-14T11:04:34;7.10;;;2.90;;
10491;SDS011;5293;51.464;-2.566;2023-06-14T11:07:34;6.50;;;2.97;;
10491;SDS011;5293;51.464;-2.566;2023-06-14T11:10:35;6.07;;;3.47;;
10491;SDS011;5293;51.464;-2.566;2023-06-14T11:13:08;4.53;;;2.87;;
10491;SDS011;5293;51.464;-2.566;2023-06-14T11:15:34;6.67;;;3.00;;
10491;SDS011;5293;51.464;-2.566;2023-06-14T11:18:04;4.93;;;3.22;;
10491;SDS011;5293;51.464;-2.566;2023-06-14T11:20:35;5.87;;;3.10;;
10491;SDS011;5293;51.464;-2.566;2023-06-14T11:23:01;6.05;;;3.13;;
10491;SDS011;5293;51.464;-2.566;2023-06-14T11:25:28;6.20;;;2.63;;
10491;SDS011;5293;51.464;-2.566;2023-06-14T11:27:54;4.57;;;3.30;;
10491;SDS011;5293;51.464;-2.566;2023-06-14T11:30:21;4.03;;;2.80;;
10491;SDS011;5293;51.464;-2.566;2023-06-14T11:32:50;6.07;;;2.87;;
10491;SDS011;5293;51.464;-2.566;2023-06-14T11:35:19;5.00;;;2.87;;
10491;SDS011;5293;51.464;-2.566;2023-06-14T11:37:53;9.10;;;3.23;;
10491;SDS011;5293;51.464;-2.566;2023-06-14T11:40:24;6.50;;;3.40;;
10491;SDS011;5293;51.464;-2.566;2023-06-14T11:42:51;6.67;;;3.30;;
10491;SDS011;5293;51.464;-2.566;2023-06-14T11:45:24;8.77;;;3.65;;
10491;SDS011;5293;51.464;-2.566;2023-06-14T11:47:50;8.50;;;4.00;;
10491;SDS011;5293;51.464;-2.566;2023-06-14T11:50:16;9.77;;;3.47;;
10491;SDS011;5293;51.464;-2.566;2023-06-14T11:52:42;5.23;;;3.30;;
10491;SDS011;5293;51.464;-2.566;2023-06-14T11:55:07;12.43;;;3.30;;
10491;SDS011;5293;51.464;-2.566;2023-06-14T11:57:34;6.57;;;3.03;;
10491;SDS011;5293;51.464;-2.566;2023-06-14T12:00:04;7.83;;;3.20;;
10491;SDS011;5293;51.464;-2.566;2023-06-14T12:02:37;6.57;;;3.40;;
10491;SDS011;5293;51.464;-2.566;2023-06-14T12:05:04;7.30;;;3.63;;
10491;SDS011;5293;51.464;-2.566;2023-06-14T12:07:35;5.18;;;3.38;;
10491;SDS011;5293;51.464;-2.566;2023-06-14T12:12:31;5.03;;;2.87;;
10491;SDS011;5293;51.464;-2.566;2023-06-14T12:15:04;8.07;;;3.73;;
10491;SDS011;5293;51.464;-2.566;2023-06-14T12:17:31;5.67;;;3.00;;
10491;SDS011;5293;51.464;-2.566;2023-06-14T12:19:58;7.33;;;3.17;;
10491;SDS011;5293;51.464;-2.566;2023-06-14T12:22:24;7.95;;;3.35;;
10491;SDS011;5293;51.464;-2.566;2023-06-14T12:24:50;8.00;;;3.47;;
10491;SDS011;5293;51.464;-2.566;2023-06-14T12:27:18;7.13;;;3.43;;
10491;SDS011;5293;51.464;-2.566;2023-06-14T12:29:58;5.23;;;3.17;;
10491;SDS011;5293;51.464;-2.566;2023-06-14T12:32:24;6.23;;;3.70;;
10491;SDS011;5293;51.464;-2.566;2023-06-14T12:34:49;4.43;;;2.83;;
10491;SDS011;5293;51.464;-2.566;2023-06-14T12:37:15;7.40;;;3.60;;
10491;SDS011;5293;51.464;-2.566;2023-06-14T12:39:41;5.27;;;3.37;;
10491;SDS011;5293;51.464;-2.566;2023-06-14T12:42:07;9.27;;;3.33;;
10491;SDS011;5293;51.464;-2.566;2023-06-14T12:44:32;6.30;;;3.57;;
10491;SDS011;5293;51.464;-2.566;2023-06-14T12:47:00;8.20;;;3.60;;
10491;SDS011;5293;51.464;-2.566;2023-06-14T12:49:26;6.17;;;3.10;;
10491;SDS011;5293;51.464;-2.566;2023-06-14T12:51:52;5.07;;;3.30;;
10491;SDS011;5293;51.464;-2.566;2023-06-14T12:54:17;7.33;;;3.13;;
10491;SDS011;5293;51.464;-2.566;2023-06-14T12:56:43;5.77;;;3.00;;
10491;SDS011;5293;51.464;-2.566;2023-06-14T12:59:09;5.17;;;3.37;;
10491;SDS011;5293;51.464;-2.566;2023-06-14T13:01:37;6.60;;;3.47;;
10491;SDS011;5293;51.464;-2.566;2023-06-14T13:04:04;7.63;;;3.63;;
10491;SDS011;5293;51.464;-2.566;2023-06-14T13:06:30;6.67;;;3.30;;
10491;SDS011;5293;51.464;-2.566;2023-06-14T13:08:56;8.47;;;3.47;;
10491;SDS011;5293;51.464;-2.566;2023-06-14T13:11:23;4.17;;;3.17;;
10491;SDS011;5293;51.464;-2.566;2023-06-14T13:13:49;6.53;;;3.20;;
10491;SDS011;5293;51.464;-2.566;2023-06-14T13:16:15;5.00;;;3.17;;
10491;SDS011;5293;51.464;-2.566;2023-06-14T13:18:40;5.83;;;3.10;;
10491;SDS011;5293;51.464;-2.566;2023-06-14T13:21:06;7.47;;;3.10;;
10491;SDS011;5293;51.464;-2.566;2023-06-14T13:23:32;6.70;;;3.53;;
10491;SDS011;5293;51.464;-2.566;2023-06-14T13:25:58;6.00;;;3.07;;
10491;SDS011;5293;51.464;-2.566;2023-06-14T13:28:23;4.13;;;2.50;;
10491;SDS011;5293;51.464;-2.566;2023-06-14T13:30:49;7.43;;;3.27;;
10491;SDS011;5293;51.464;-2.566;2023-06-14T13:33:15;4.63;;;3.00;;
10491;SDS011;5293;51.464;-2.566;2023-06-14T13:35:40;9.30;;;3.53;;
10491;SDS011;5293;51.464;-2.566;2023-06-14T13:38:06;10.27;;;3.00;;
10491;SDS011;5293;51.464;-2.566;2023-06-14T13:40:33;4.60;;;3.37;;
10491;SDS011;5293;51.464;-2.566;2023-06-14T13:42:58;6.50;;;3.30;;
10491;SDS011;5293;51.464;-2.566;2023-06-14T13:45:24;5.03;;;3.00;;
10491;SDS011;5293;51.464;-2.566;2023-06-14T13:47:50;4.30;;;3.00;;
10491;SDS011;5293;51.464;-2.566;2023-06-14T13:50:16;10.00;;;3.23;;
10491;SDS011;5293;51.464;-2.566;2023-06-14T13:52:42;3.53;;;3.00;;
10491;SDS011;5293;51.464;-2.566;2023-06-14T13:55:08;4.57;;;3.57;;
10491;SDS011;5293;51.464;-2.566;2023-06-14T13:57:34;4.50;;;3.10;;
10491;SDS011;5293;51.464;-2.566;2023-06-14T14:00:00;4.27;;;3.33;;
10491;SDS011;5293;51.464;-2.566;2023-06-14T14:02:29;3.67;;;3.30;;
10491;SDS011;5293;51.464;-2.566;2023-06-14T14:04:55;4.30;;;3.33;;
10491;SDS011;5293;51.464;-2.566;2023-06-14T14:07:22;6.10;;;3.43;;
10491;SDS011;5293;51.464;-2.566;2023-06-14T14:09:48;5.43;;;4.00;;
10491;SDS011;5293;51.464;-2.566;2023-06-14T14:12:14;5.33;;;3.20;;
10491;SDS011;5293;51.464;-2.566;2023-06-14T14:14:40;4.80;;;3.30;;
10491;SDS011;5293;51.464;-2.566;2023-06-14T14:17:06;7.73;;;4.00;;
10491;SDS011;5293;51.464;-2.566;2023-06-14T14:19:31;7.17;;;3.70;;
10491;SDS011;5293;51.464;-2.566;2023-06-14T14:21:57;7.40;;;3.73;;
10491;SDS011;5293;51.464;-2.566;2023-06-14T14:24:23;4.93;;;3.50;;
10491;SDS011;5293;51.464;-2.566;2023-06-14T14:26:49;7.43;;;3.60;;
10491;SDS011;5293;51.464;-2.566;2023-06-14T14:29:18;7.40;;;3.80;;
10491;SDS011;5293;51.464;-2.566;2023-06-14T14:31:44;4.10;;;3.57;;
10491;SDS011;5293;51.464;-2.566;2023-06-14T14:34:10;6.43;;;3.50;;
10491;SDS011;5293;51.464;-2.566;2023-06-14T14:36:36;5.60;;;3.53;;
10491;SDS011;5293;51.464;-2.566;2023-06-14T14:39:03;6.57;;;3.67;;
10491;SDS011;5293;51.464;-2.566;2023-06-14T14:41:29;5.40;;;3.63;;
10491;SDS011;5293;51.464;-2.566;2023-06-14T14:43:55;9.80;;;3.83;;
10491;SDS011;5293;51.464;-2.566;2023-06-14T14:46:20;8.90;;;3.83;;
10491;SDS011;5293;51.464;-2.566;2023-06-14T14:48:46;7.20;;;4.10;;
10491;SDS011;5293;51.464;-2.566;2023-06-14T14:51:12;5.20;;;3.80;;
10491;SDS011;5293;51.464;-2.566;2023-06-14T14:53:37;6.20;;;3.90;;
10491;SDS011;5293;51.464;-2.566;2023-06-14T14:56:03;5.63;;;4.20;;
10491;SDS011;5293;51.464;-2.566;2023-06-14T14:58:29;4.70;;;3.57;;
10491;SDS011;5293;51.464;-2.566;2023-06-14T15:00:55;5.50;;;3.13;;
10491;SDS011;5293;51.464;-2.566;2023-06-14T15:03:20;4.60;;;3.93;;
10491;SDS011;5293;51.464;-2.566;2023-06-14T15:05:46;5.37;;;3.70;;
10491;SDS011;5293;51.464;-2.566;2023-06-14T15:08:12;9.80;;;4.10;;
10491;SDS011;5293;51.464;-2.566;2023-06-14T15:10:38;7.40;;;3.97;;